createdAt,value
2017-12-28T00:00:10.702Z,98.68
2017-12-28T00:01:10.630Z,98.96
2017-12-28T00:02:10.546Z,98.39
2017-12-28T00:03:10.474Z,99.05
2017-12-28T00:04:10.371Z,99.24
2017-12-28T00:05:10.278Z,99.05
2017-12-28T00:06:10.210Z,98.86
2017-12-28T00:07:10.122Z,99.24
2017-12-28T00:08:10.028Z,98.86
2017-12-28T00:09:09.950Z,99.24
2017-12-28T00:10:09.867Z,99.05
2017-12-28T00:11:09.770Z,98.86
2017-12-28T00:12:09.698Z,98.77
2017-12-28T00:13:09.613Z,99.15
2017-12-28T00:14:09.528Z,99.52
2017-12-28T00:15:09.450Z,99.43
2017-12-28T00:16:09.360Z,99.15
2017-12-28T00:17:09.273Z,98.86
2017-12-28T00:18:09.188Z,99.71
2017-12-28T00:19:09.103Z,99.90
2017-12-28T00:20:09.012Z,99.15
2017-12-28T00:21:08.933Z,99.71
2017-12-28T00:22:08.850Z,99.24
2017-12-28T00:23:08.755Z,99.15
2017-12-28T00:24:08.667Z,98.86
2017-12-28T00:25:08.595Z,99.05
2017-12-28T00:26:08.493Z,99.33
2017-12-28T00:27:08.412Z,99.24
2017-12-28T00:28:08.327Z,98.96
2017-12-28T00:29:08.259Z,99.05
2017-12-28T00:30:08.177Z,99.24
2017-12-28T00:31:08.083Z,98.86
2017-12-28T00:32:08.012Z,98.86
2017-12-28T00:33:07.912Z,98.68
2017-12-28T00:34:07.819Z,98.77
2017-12-28T00:35:07.735Z,98.49
2017-12-28T00:36:07.650Z,98.91
2017-12-28T00:37:07.594Z,98.68
2017-12-28T00:38:07.479Z,98.58
2017-12-28T00:39:07.397Z,98.77
2017-12-28T00:40:07.316Z,98.86
2017-12-28T00:41:07.228Z,98.96
2017-12-28T00:42:07.141Z,98.49
2017-12-28T00:43:07.062Z,98.96
2017-12-28T00:44:06.970Z,98.39
2017-12-28T00:45:06.888Z,98.54
2017-12-28T00:46:06.801Z,98.39
2017-12-28T00:47:06.718Z,99.33
2017-12-28T00:48:06.632Z,99.01
2017-12-28T00:49:06.552Z,98.68
2017-12-28T00:50:06.462Z,99.05
2017-12-28T00:51:06.380Z,99.24
2017-12-28T00:52:06.296Z,99.05
2017-12-28T00:53:06.208Z,99.05
2017-12-28T00:54:06.124Z,99.24
2017-12-28T00:55:06.040Z,99.05
2017-12-28T00:56:05.957Z,99.24
2017-12-28T00:57:05.875Z,98.77
2017-12-28T00:58:05.789Z,99.05
2017-12-28T00:59:05.704Z,99.05
2017-12-28T01:00:05.616Z,98.86
2017-12-28T01:01:05.531Z,98.72
2017-12-28T01:02:05.448Z,99.05
2017-12-28T01:03:05.362Z,99.01
2017-12-28T01:04:05.280Z,98.77
2017-12-28T01:05:05.193Z,99.05
2017-12-28T01:06:05.108Z,99.24
2017-12-28T01:07:05.026Z,99.05
2017-12-28T01:08:04.940Z,99.33
2017-12-28T01:09:04.855Z,98.86
2017-12-28T01:10:04.770Z,99.43
2017-12-28T01:11:04.684Z,99.05
2017-12-28T01:12:04.602Z,98.68
2017-12-28T01:13:04.515Z,99.05
2017-12-28T01:14:04.432Z,98.86
2017-12-28T01:15:04.346Z,99.05
2017-12-28T01:16:04.261Z,98.96
2017-12-28T01:17:04.176Z,98.77
2017-12-28T01:18:04.091Z,99.15
2017-12-28T01:19:04.009Z,99.24
2017-12-28T01:20:03.923Z,99.05
2017-12-28T01:21:03.841Z,99.33
2017-12-28T01:22:03.752Z,99.15
2017-12-28T01:23:03.668Z,99.43
2017-12-28T01:24:03.583Z,99.52
2017-12-28T01:25:03.502Z,99.62
2017-12-28T01:26:03.413Z,98.86
2017-12-28T01:27:03.328Z,99.15
2017-12-28T01:28:03.245Z,99.71
2017-12-28T01:29:03.159Z,99.52
2017-12-28T01:30:03.074Z,99.71
2017-12-28T01:31:02.990Z,99.62
2017-12-28T01:32:02.905Z,99.81
2017-12-28T01:33:02.822Z,99.90
2017-12-28T01:34:02.752Z,99.81
2017-12-28T01:35:02.670Z,99.52
2017-12-28T01:36:02.565Z,99.81
2017-12-28T01:37:02.482Z,99.81
2017-12-28T01:38:02.398Z,99.81
2017-12-28T01:39:02.310Z,99.99
2017-12-28T01:40:02.228Z,99.99
2017-12-28T01:41:02.141Z,99.99
2017-12-28T01:42:02.056Z,99.99
2017-12-28T01:43:01.970Z,99.99
2017-12-28T01:44:01.900Z,99.99
2017-12-28T01:45:01.801Z,99.99
2017-12-28T01:46:01.714Z,99.99
2017-12-28T01:47:01.632Z,99.99
2017-12-28T01:48:01.544Z,99.99
2017-12-28T01:49:01.462Z,99.99
2017-12-28T01:50:01.376Z,99.99
2017-12-28T01:51:01.290Z,99.99
2017-12-28T01:52:01.204Z,99.99
2017-12-28T01:53:01.123Z,99.90
2017-12-28T01:54:01.034Z,99.90
2017-12-28T01:55:00.948Z,99.71
2017-12-28T01:56:00.866Z,99.71
2017-12-28T01:57:00.779Z,99.90
2017-12-28T01:58:00.692Z,99.99
2017-12-28T01:59:00.609Z,99.99
2017-12-28T02:00:00.527Z,99.99
2017-12-28T02:01:00.441Z,99.99
2017-12-28T02:02:00.352Z,99.99
2017-12-28T02:03:00.268Z,99.99
2017-12-28T02:04:00.184Z,99.99
2017-12-28T02:05:00.103Z,99.99
2017-12-28T02:06:00.021Z,99.99
2017-12-28T02:06:59.925Z,99.99
2017-12-28T02:07:59.845Z,99.99
2017-12-28T02:08:59.756Z,99.99
2017-12-28T02:09:59.670Z,99.99
2017-12-28T02:10:59.598Z,99.99
2017-12-28T02:11:59.499Z,99.99
2017-12-28T02:12:59.415Z,99.99
2017-12-28T02:13:59.340Z,99.99
2017-12-28T02:14:59.242Z,99.99
2017-12-28T02:15:59.164Z,99.99
2017-12-28T02:16:59.072Z,99.99
2017-12-28T02:17:58.991Z,99.99
2017-12-28T02:18:58.904Z,99.99
2017-12-28T02:19:58.819Z,99.99
2017-12-28T02:20:58.732Z,99.99
2017-12-28T02:21:58.646Z,99.71
2017-12-28T02:22:58.563Z,99.90
2017-12-28T02:23:58.479Z,99.99
2017-12-28T02:24:58.391Z,99.71
2017-12-28T02:25:58.307Z,99.62
2017-12-28T02:26:58.220Z,99.62
2017-12-28T02:27:58.139Z,99.81
2017-12-28T02:28:58.048Z,99.81
2017-12-28T02:29:57.967Z,99.90
2017-12-28T02:30:57.882Z,99.90
2017-12-28T02:31:57.796Z,99.90
2017-12-28T02:32:57.717Z,99.62
2017-12-28T02:33:57.633Z,99.99
2017-12-28T02:34:57.546Z,99.62
2017-12-28T02:35:57.457Z,99.24
2017-12-28T02:36:57.370Z,99.33
2017-12-28T02:37:57.297Z,99.43
2017-12-28T02:38:57.199Z,99.52
2017-12-28T02:39:57.112Z,98.96
2017-12-28T02:40:57.029Z,99.90
2017-12-28T02:41:56.943Z,98.86
2017-12-28T02:42:56.858Z,98.96
2017-12-28T02:43:56.773Z,99.71
2017-12-28T02:44:56.685Z,99.43
2017-12-28T02:45:56.602Z,99.62
2017-12-28T02:46:56.516Z,99.99
2017-12-28T02:47:56.432Z,99.15
2017-12-28T02:48:56.348Z,99.15
2017-12-28T02:49:56.259Z,99.24
2017-12-28T02:50:56.176Z,99.81
2017-12-28T02:51:56.092Z,99.81
2017-12-28T02:52:56.008Z,99.71
2017-12-28T02:53:55.920Z,99.62
2017-12-28T02:54:55.839Z,99.71
2017-12-28T02:55:55.750Z,99.33
2017-12-28T02:56:55.672Z,99.62
2017-12-28T02:57:55.580Z,99.24
2017-12-28T02:58:55.492Z,98.96
2017-12-28T02:59:55.416Z,99.99
2017-12-28T03:00:55.324Z,99.90
2017-12-28T03:01:55.238Z,99.62
2017-12-28T03:02:55.154Z,99.62
2017-12-28T03:03:55.069Z,99.62
2017-12-28T03:04:54.984Z,99.62
2017-12-28T03:08:53.346Z,99.52
2017-12-28T03:09:53.212Z,99.90
2017-12-28T03:11:47.447Z,99.33
2017-12-28T03:12:47.355Z,98.96
2017-12-28T03:13:47.271Z,99.99
2017-12-28T03:14:47.183Z,99.71
2017-12-28T03:15:47.100Z,99.62
2017-12-28T03:16:47.015Z,99.62
2017-12-28T03:17:46.930Z,99.71
2017-12-28T03:18:46.846Z,99.71
2017-12-28T03:19:46.757Z,99.71
2017-12-28T03:20:46.675Z,99.99
2017-12-28T03:21:46.588Z,99.52
2017-12-28T03:22:46.524Z,99.81
2017-12-28T03:23:46.416Z,99.52
2017-12-28T03:24:46.333Z,99.71
2017-12-28T03:25:46.252Z,99.33
2017-12-28T03:26:46.167Z,99.62
2017-12-28T03:27:46.076Z,99.62
2017-12-28T03:28:45.993Z,99.81
2017-12-28T03:29:45.907Z,99.81
2017-12-28T03:30:45.825Z,99.90
2017-12-28T03:31:45.744Z,99.81
2017-12-28T03:32:45.651Z,99.99
2017-12-28T03:33:45.566Z,99.90
2017-12-28T03:34:45.482Z,99.99
2017-12-28T03:35:45.395Z,99.90
2017-12-28T03:36:45.312Z,99.90
2017-12-28T03:37:45.227Z,99.81
2017-12-28T03:38:45.140Z,99.71
2017-12-28T03:39:45.093Z,99.52
2017-12-28T03:40:44.973Z,99.81
2017-12-28T03:41:44.885Z,99.90
2017-12-28T03:42:44.804Z,99.99
2017-12-28T03:43:44.774Z,99.71
2017-12-28T03:44:44.682Z,99.81
2017-12-28T03:45:44.576Z,99.52
2017-12-28T03:46:44.458Z,99.71
2017-12-28T03:47:44.375Z,99.90
2017-12-28T03:48:44.338Z,99.99
2017-12-28T03:49:44.259Z,99.99
2017-12-28T03:50:44.171Z,99.99
2017-12-28T03:51:44.097Z,99.99
2017-12-28T03:52:44.032Z,99.90
2017-12-28T03:53:43.866Z,99.99
2017-12-28T03:54:43.782Z,99.99
2017-12-28T03:55:43.695Z,99.71
2017-12-28T03:56:43.615Z,99.90
2017-12-28T03:57:43.525Z,99.71
2017-12-28T03:58:43.439Z,99.71
2017-12-28T03:59:43.363Z,99.62
2017-12-28T04:00:43.269Z,99.71
2017-12-28T04:01:43.186Z,99.62
2017-12-28T04:02:43.141Z,99.43
2017-12-28T04:03:43.015Z,99.90
2017-12-28T04:04:42.933Z,99.90
2017-12-28T04:05:42.847Z,99.90
2017-12-28T04:06:42.760Z,99.33
2017-12-28T04:07:42.675Z,99.52
2017-12-28T04:08:42.590Z,99.52
2017-12-28T04:09:42.503Z,99.52
2017-12-28T04:10:42.421Z,99.81
2017-12-28T04:11:42.337Z,99.99
2017-12-28T04:12:42.250Z,99.99
2017-12-28T04:13:42.165Z,99.62
2017-12-28T04:14:42.082Z,99.99
2017-12-28T04:15:41.996Z,99.99
2017-12-28T04:16:41.913Z,99.99
2017-12-28T04:17:41.824Z,99.99
2017-12-28T04:18:41.741Z,99.99
2017-12-28T04:19:41.656Z,99.99
2017-12-28T04:20:41.574Z,99.99
2017-12-28T04:21:41.489Z,99.99
2017-12-28T04:22:41.405Z,99.99
2017-12-28T04:23:41.316Z,99.71
2017-12-28T04:24:41.233Z,99.90
2017-12-28T04:25:41.146Z,99.81
2017-12-28T04:26:41.066Z,99.90
2017-12-28T04:27:40.977Z,99.99
2017-12-28T04:28:40.896Z,99.43
2017-12-28T04:29:40.811Z,99.62
2017-12-28T04:30:40.723Z,99.62
2017-12-28T04:31:40.641Z,99.71
2017-12-28T04:32:40.553Z,99.52
2017-12-28T04:33:40.470Z,99.90
2017-12-28T04:34:40.383Z,99.99
2017-12-28T04:35:40.311Z,99.33
2017-12-28T04:36:40.218Z,99.33
2017-12-28T04:37:40.129Z,99.33
2017-12-28T04:38:40.045Z,99.39
2017-12-28T04:39:39.963Z,99.33
2017-12-28T04:40:39.876Z,99.24
2017-12-28T04:41:39.794Z,99.24
2017-12-28T04:42:39.706Z,99.24
2017-12-28T04:43:39.619Z,98.86
2017-12-28T04:44:39.538Z,99.33
2017-12-28T04:45:39.457Z,99.15
2017-12-28T04:46:39.368Z,99.05
2017-12-28T04:47:39.282Z,99.71
2017-12-28T04:48:39.197Z,99.62
2017-12-28T04:49:39.116Z,99.62
2017-12-28T04:50:39.063Z,99.62
2017-12-28T04:51:38.942Z,99.90
2017-12-28T04:52:38.860Z,99.62
2017-12-28T04:53:38.773Z,99.33
2017-12-28T04:54:38.687Z,99.43
2017-12-28T04:55:38.605Z,99.62
2017-12-28T04:56:38.518Z,99.90
2017-12-28T04:57:38.440Z,99.86
2017-12-28T04:58:38.352Z,99.99
2017-12-28T04:59:38.265Z,99.81
2017-12-28T05:00:38.199Z,99.52
2017-12-28T05:01:38.096Z,99.71
2017-12-28T05:02:38.013Z,99.62
2017-12-28T05:03:37.928Z,99.62
2017-12-28T05:04:37.841Z,99.52
2017-12-28T05:05:37.758Z,99.52
2017-12-28T05:06:37.672Z,99.71
2017-12-28T05:07:37.586Z,99.99
2017-12-28T05:08:37.502Z,99.99
2017-12-28T05:09:37.422Z,99.99
2017-12-28T05:10:37.332Z,99.71
2017-12-28T05:11:37.248Z,99.90
2017-12-28T05:12:37.164Z,99.90
2017-12-28T05:13:37.079Z,99.71
2017-12-28T05:14:37.007Z,99.90
2017-12-28T05:15:36.908Z,99.99
2017-12-28T05:16:36.825Z,99.62
2017-12-28T05:17:36.741Z,99.62
2017-12-28T05:18:36.656Z,99.99
2017-12-28T05:19:36.578Z,99.99
2017-12-28T05:20:36.485Z,99.99
2017-12-28T05:21:36.412Z,99.99
2017-12-28T05:22:36.319Z,99.99
2017-12-28T05:23:36.282Z,99.99
2017-12-28T05:24:36.150Z,99.99
2017-12-28T05:25:36.061Z,99.99
2017-12-28T05:26:35.976Z,99.99
2017-12-28T05:27:35.890Z,99.99
2017-12-28T05:28:35.806Z,99.99
2017-12-28T05:29:35.730Z,99.99
2017-12-28T05:30:35.640Z,99.99
2017-12-28T05:31:35.553Z,99.99
2017-12-28T05:32:35.479Z,99.99
2017-12-28T05:33:35.387Z,99.99
2017-12-28T05:34:35.311Z,99.99
2017-12-28T05:35:35.213Z,99.99
2017-12-28T05:36:35.134Z,99.99
2017-12-28T05:37:35.042Z,99.99
2017-12-28T05:38:34.959Z,99.99
2017-12-28T05:39:34.873Z,99.99
2017-12-28T05:40:34.789Z,99.99
2017-12-28T05:41:34.701Z,99.99
2017-12-28T05:42:34.618Z,99.99
2017-12-28T05:43:34.557Z,99.99
2017-12-28T05:44:34.450Z,99.99
2017-12-28T05:45:34.374Z,99.99
2017-12-28T05:46:34.281Z,99.99
2017-12-28T05:47:34.206Z,99.99
2017-12-28T05:48:34.110Z,99.99
2017-12-28T05:49:34.026Z,99.99
2017-12-28T05:50:33.938Z,99.99
2017-12-28T05:51:33.850Z,99.99
2017-12-28T05:52:33.768Z,99.99
2017-12-28T05:53:33.682Z,99.99
2017-12-28T05:54:33.613Z,99.99
2017-12-28T05:55:33.512Z,99.99
2017-12-28T05:56:33.425Z,99.99
2017-12-28T05:57:33.342Z,99.99
2017-12-28T05:58:33.255Z,99.99
2017-12-28T05:59:33.172Z,99.99
2017-12-28T06:00:33.090Z,99.99
2017-12-28T06:01:33.006Z,99.99
2017-12-28T06:02:32.917Z,99.99
2017-12-28T06:03:32.834Z,99.99
2017-12-28T06:04:32.747Z,99.90
2017-12-28T06:05:32.666Z,99.99
2017-12-28T06:06:32.577Z,99.99
2017-12-28T06:07:32.494Z,99.99
2017-12-28T06:08:32.412Z,99.99
2017-12-28T06:09:32.324Z,99.99
2017-12-28T06:10:32.240Z,99.99
2017-12-28T06:11:32.154Z,99.99
2017-12-28T06:12:32.071Z,99.99
2017-12-28T06:13:31.984Z,99.99
2017-12-28T06:14:31.899Z,99.99
2017-12-28T06:15:31.816Z,99.99
2017-12-28T06:16:31.730Z,99.99
2017-12-28T06:17:31.641Z,99.99
2017-12-28T06:18:31.562Z,99.99
2017-12-28T06:19:31.475Z,99.99
2017-12-28T06:20:31.391Z,99.99
2017-12-28T06:21:31.307Z,99.99
2017-12-28T06:22:31.274Z,99.99
2017-12-28T06:23:31.146Z,99.99
2017-12-28T06:24:31.062Z,99.99
2017-12-28T06:25:30.983Z,99.99
2017-12-28T06:26:30.880Z,99.99
2017-12-28T06:27:30.799Z,99.99
2017-12-28T06:28:30.713Z,99.99
2017-12-28T06:29:30.623Z,99.99
2017-12-28T06:30:30.537Z,99.99
2017-12-28T06:31:30.460Z,99.99
2017-12-28T06:32:30.378Z,99.99
2017-12-28T06:33:30.283Z,99.99
2017-12-28T06:34:30.200Z,99.99
2017-12-28T06:35:30.115Z,99.99
2017-12-28T06:36:30.028Z,99.99
2017-12-28T06:37:29.944Z,99.99
2017-12-28T06:38:29.860Z,99.90
2017-12-28T06:39:29.777Z,99.99
2017-12-28T06:40:29.694Z,99.99
2017-12-28T06:41:29.606Z,99.81
2017-12-28T06:42:29.523Z,99.81
2017-12-28T06:43:29.439Z,99.99
2017-12-28T06:44:29.352Z,99.90
2017-12-28T06:45:29.267Z,99.90
2017-12-28T06:46:29.181Z,99.90
2017-12-28T06:47:29.108Z,99.90
2017-12-28T06:48:29.010Z,99.90
2017-12-28T06:49:28.927Z,99.90
2017-12-28T06:50:28.841Z,99.90
2017-12-28T06:51:28.757Z,99.52
2017-12-28T06:52:28.722Z,99.90
2017-12-28T06:53:28.591Z,99.90
2017-12-28T06:54:28.505Z,99.62
2017-12-28T06:55:28.416Z,99.90
2017-12-28T06:56:28.336Z,99.99
2017-12-28T06:57:28.246Z,99.81
2017-12-28T06:58:28.162Z,99.71
2017-12-28T06:59:28.074Z,99.71
2017-12-28T07:00:27.991Z,99.99
2017-12-28T07:01:27.903Z,99.99
2017-12-28T07:02:27.836Z,99.99
2017-12-28T07:03:27.736Z,99.99
2017-12-28T07:04:27.665Z,99.99
2017-12-28T07:05:27.562Z,99.99
2017-12-28T07:06:27.480Z,99.99
2017-12-28T07:07:27.393Z,99.99
2017-12-28T07:08:27.308Z,99.99
2017-12-28T07:09:27.222Z,99.99
2017-12-28T07:10:27.141Z,99.99
2017-12-28T07:11:27.067Z,99.99
2017-12-28T07:12:26.969Z,99.99
2017-12-28T07:13:26.884Z,99.99
2017-12-28T07:14:26.799Z,99.99
2017-12-28T07:15:26.720Z,99.99
2017-12-28T07:16:26.628Z,99.99
2017-12-28T07:17:26.590Z,99.99
2017-12-28T07:18:26.458Z,99.99
2017-12-28T07:19:26.375Z,99.99
2017-12-28T07:20:26.293Z,99.99
2017-12-28T07:21:26.208Z,99.99
2017-12-28T07:22:26.123Z,99.99
2017-12-28T07:23:26.036Z,99.99
2017-12-28T07:24:25.948Z,99.99
2017-12-28T07:25:25.872Z,99.99
2017-12-28T07:26:25.779Z,99.99
2017-12-28T07:27:25.698Z,99.99
2017-12-28T07:28:25.609Z,99.99
2017-12-28T07:29:25.525Z,99.99
2017-12-28T07:30:25.440Z,99.99
2017-12-28T07:31:25.355Z,99.99
2017-12-28T07:32:25.292Z,99.99
2017-12-28T07:33:25.183Z,99.99
2017-12-28T07:34:25.100Z,99.99
2017-12-28T07:35:25.075Z,99.99
2017-12-28T07:36:24.980Z,99.99
2017-12-28T07:37:24.851Z,99.99
2017-12-28T07:38:24.758Z,99.99
2017-12-28T07:39:24.674Z,99.99
2017-12-28T07:40:24.589Z,99.99
2017-12-28T07:41:24.506Z,99.99
2017-12-28T07:42:24.420Z,99.99
2017-12-28T07:43:24.336Z,99.99
2017-12-28T07:44:24.249Z,99.99
2017-12-28T07:45:24.163Z,99.99
2017-12-28T07:46:24.079Z,99.99
2017-12-28T07:47:23.995Z,99.99
2017-12-28T07:48:23.944Z,99.99
2017-12-28T07:49:23.828Z,99.71
2017-12-28T07:50:23.748Z,99.99
2017-12-28T07:51:23.664Z,99.99
2017-12-28T07:52:23.570Z,99.99
2017-12-28T07:53:23.485Z,99.99
2017-12-28T07:54:23.401Z,99.99
2017-12-28T07:55:23.323Z,99.99
2017-12-28T07:56:23.230Z,99.99
2017-12-28T07:57:23.145Z,99.99
2017-12-28T07:58:23.083Z,99.99
2017-12-28T07:59:22.974Z,99.99
2017-12-28T08:00:22.890Z,99.99
2017-12-28T08:01:22.816Z,99.99
2017-12-28T08:02:22.719Z,99.99
2017-12-28T08:03:22.639Z,99.99
2017-12-28T08:04:22.551Z,99.99
2017-12-28T08:05:22.466Z,99.99
2017-12-28T08:06:22.380Z,99.99
2017-12-28T08:07:22.297Z,99.99
2017-12-28T08:08:22.211Z,99.99
2017-12-28T08:09:22.126Z,99.71
2017-12-28T08:10:22.040Z,99.99
2017-12-28T08:11:21.959Z,99.71
2017-12-28T08:12:21.872Z,99.90
2017-12-28T08:13:21.787Z,99.71
2017-12-28T08:14:21.702Z,99.90
2017-12-28T08:15:21.616Z,99.81
2017-12-28T08:16:21.532Z,99.90
2017-12-28T08:17:21.444Z,99.90
2017-12-28T08:18:21.362Z,99.90
2017-12-28T08:19:21.275Z,99.99
2017-12-28T08:20:21.191Z,99.99
2017-12-28T08:21:21.108Z,99.99
2017-12-28T08:22:21.022Z,99.99
2017-12-28T08:23:20.939Z,99.99
2017-12-28T08:24:20.851Z,99.99
2017-12-28T08:25:20.767Z,99.99
2017-12-28T08:26:20.682Z,99.99
2017-12-28T08:27:20.600Z,99.90
2017-12-28T08:28:20.530Z,99.62
2017-12-28T08:29:20.425Z,99.99
2017-12-28T08:30:20.342Z,99.99
2017-12-28T08:31:20.256Z,99.99
2017-12-28T08:32:20.185Z,99.99
2017-12-28T08:33:20.086Z,99.99
2017-12-28T08:34:20.006Z,99.99
2017-12-28T08:35:19.915Z,99.99
2017-12-28T08:36:19.832Z,99.99
2017-12-28T08:37:19.756Z,99.99
2017-12-28T08:38:19.664Z,99.99
2017-12-28T08:39:19.577Z,99.99
2017-12-28T08:40:19.491Z,99.99
2017-12-28T08:41:19.408Z,99.99
2017-12-28T08:42:19.326Z,99.99
2017-12-28T08:43:19.238Z,99.99
2017-12-28T08:44:19.153Z,99.99
2017-12-28T08:45:19.065Z,99.99
2017-12-28T08:46:18.981Z,99.99
2017-12-28T08:47:18.897Z,99.90
2017-12-28T08:48:18.828Z,99.71
2017-12-28T08:49:18.729Z,99.90
2017-12-28T08:50:18.641Z,99.99
2017-12-28T08:51:18.558Z,99.99
2017-12-28T08:52:18.471Z,99.99
2017-12-28T08:53:18.385Z,99.99
2017-12-28T08:54:18.300Z,99.99
2017-12-28T08:55:18.216Z,99.99
2017-12-28T08:56:18.133Z,99.99
2017-12-28T08:57:18.047Z,99.99
2017-12-28T08:58:17.963Z,99.99
2017-12-28T08:59:17.876Z,99.99
2017-12-28T09:00:17.792Z,99.99
2017-12-28T09:01:17.706Z,99.99
2017-12-28T09:02:17.654Z,99.99
2017-12-28T09:03:17.535Z,99.99
2017-12-28T09:04:17.472Z,99.99
2017-12-28T09:05:17.366Z,99.99
2017-12-28T09:06:17.280Z,99.99
2017-12-28T09:07:17.197Z,99.99
2017-12-28T09:08:17.114Z,99.99
2017-12-28T09:09:17.027Z,99.99
2017-12-28T09:10:16.941Z,99.99
2017-12-28T09:11:16.853Z,99.99
2017-12-28T09:12:16.781Z,99.99
2017-12-28T09:13:16.684Z,99.99
2017-12-28T09:14:16.600Z,99.99
2017-12-28T09:15:16.516Z,99.99
2017-12-28T09:16:16.431Z,99.99
2017-12-28T09:17:16.346Z,99.99
2017-12-28T09:18:16.260Z,99.99
2017-12-28T09:19:16.176Z,99.99
2017-12-28T09:20:16.088Z,99.99
2017-12-28T09:21:16.006Z,99.99
2017-12-28T09:22:15.921Z,99.99
2017-12-28T09:23:15.834Z,99.99
2017-12-28T09:24:15.750Z,99.99
2017-12-28T09:25:15.662Z,99.99
2017-12-28T09:26:15.593Z,99.99
2017-12-28T09:27:15.497Z,99.99
2017-12-28T09:28:15.414Z,99.99
2017-12-28T09:29:15.323Z,99.99
2017-12-28T09:30:15.239Z,99.99
2017-12-28T09:31:15.154Z,99.99
2017-12-28T09:32:15.070Z,99.99
2017-12-28T09:33:14.985Z,99.99
2017-12-28T09:34:14.899Z,99.99
2017-12-28T09:35:14.813Z,99.99
2017-12-28T09:36:14.732Z,99.99
2017-12-28T09:37:14.644Z,99.99
2017-12-28T09:38:14.558Z,99.99
2017-12-28T09:39:14.474Z,99.99
2017-12-28T09:40:14.388Z,99.99
2017-12-28T09:41:14.304Z,99.99
2017-12-28T09:42:14.220Z,99.99
2017-12-28T09:43:14.133Z,99.99
2017-12-28T09:44:14.049Z,99.99
2017-12-28T09:45:13.963Z,99.99
2017-12-28T09:46:13.880Z,99.99
2017-12-28T09:47:13.797Z,99.99
2017-12-28T09:48:13.709Z,99.99
2017-12-28T09:49:13.631Z,99.99
2017-12-28T09:50:13.538Z,99.99
2017-12-28T09:51:13.459Z,99.99
2017-12-28T09:52:13.371Z,99.99
2017-12-28T09:53:13.285Z,99.99
2017-12-28T09:54:13.201Z,99.99
2017-12-28T09:55:13.114Z,99.99
2017-12-28T09:56:13.029Z,99.99
2017-12-28T09:57:12.949Z,99.99
2017-12-28T09:58:12.861Z,99.99
2017-12-28T09:59:12.777Z,99.99
2017-12-28T10:00:12.691Z,99.99
2017-12-28T10:01:12.604Z,99.99
2017-12-28T10:02:12.519Z,99.99
2017-12-28T10:03:12.435Z,99.99
2017-12-28T10:04:12.350Z,99.99
2017-12-28T10:05:12.265Z,99.99
2017-12-28T10:06:12.186Z,99.99
2017-12-28T10:07:12.097Z,99.99
2017-12-28T10:08:12.011Z,99.99
2017-12-28T10:09:11.929Z,99.99
2017-12-28T10:10:11.841Z,99.99
2017-12-28T10:11:11.757Z,99.99
2017-12-28T10:12:11.672Z,99.99
2017-12-28T10:13:11.585Z,99.99
2017-12-28T10:14:11.501Z,99.99
2017-12-28T10:15:11.417Z,99.99
2017-12-28T10:16:11.334Z,99.99
2017-12-28T10:17:11.247Z,99.99
2017-12-28T10:18:11.163Z,99.99
2017-12-28T10:19:11.076Z,99.99
2017-12-28T10:20:10.992Z,99.99
2017-12-28T10:21:10.906Z,99.99
2017-12-28T10:22:10.823Z,99.99
2017-12-28T10:23:10.740Z,99.99
2017-12-28T10:24:10.652Z,99.99
2017-12-28T10:25:10.565Z,99.99
2017-12-28T10:26:10.495Z,99.99
2017-12-28T10:27:10.399Z,99.99
2017-12-28T10:28:10.319Z,99.99
2017-12-28T10:29:10.227Z,99.99
2017-12-28T10:30:10.142Z,99.99
2017-12-28T10:31:10.058Z,99.99
2017-12-28T10:32:09.975Z,99.99
2017-12-28T10:33:09.891Z,99.99
2017-12-28T10:34:09.805Z,99.99
2017-12-28T10:35:09.724Z,99.99
2017-12-28T10:36:09.636Z,99.99
2017-12-28T10:37:09.552Z,99.99
2017-12-28T10:38:09.465Z,99.99
2017-12-28T10:39:09.382Z,99.99
2017-12-28T10:40:09.294Z,99.99
2017-12-28T10:41:09.208Z,99.99
2017-12-28T10:42:09.126Z,99.99
2017-12-28T10:43:09.038Z,99.99
2017-12-28T10:44:08.956Z,99.99
2017-12-28T10:45:08.869Z,99.99
2017-12-28T10:46:08.782Z,99.99
2017-12-28T10:47:08.700Z,99.99
2017-12-28T10:48:08.615Z,99.99
2017-12-28T10:49:08.527Z,99.99
2017-12-28T10:50:08.443Z,99.99
2017-12-28T10:51:08.357Z,99.99
2017-12-28T10:52:08.276Z,99.99
2017-12-28T10:53:08.190Z,99.99
2017-12-28T10:54:08.106Z,99.99
2017-12-28T10:55:08.021Z,99.99
2017-12-28T10:56:07.933Z,99.99
2017-12-28T10:57:07.848Z,99.99
2017-12-28T10:58:07.762Z,99.99
2017-12-28T10:59:07.680Z,99.99
2017-12-28T11:00:07.594Z,99.99
2017-12-28T11:01:07.506Z,99.99
2017-12-28T11:02:07.425Z,99.99
2017-12-28T11:03:07.337Z,99.99
2017-12-28T11:04:07.254Z,99.99
2017-12-28T11:05:07.167Z,99.99
2017-12-28T11:06:07.082Z,99.99
2017-12-28T11:07:07.003Z,99.99
2017-12-28T11:08:06.913Z,99.99
2017-12-28T11:09:06.825Z,99.99
2017-12-28T11:10:06.740Z,99.99
2017-12-28T11:11:06.656Z,99.99
2017-12-28T11:12:06.570Z,99.99
2017-12-28T11:13:06.484Z,99.99
2017-12-28T11:14:06.399Z,99.99
2017-12-28T11:15:06.314Z,99.99
2017-12-28T11:16:06.233Z,99.99
2017-12-28T11:17:06.146Z,99.99
2017-12-28T11:18:06.059Z,99.99
2017-12-28T11:19:05.975Z,99.99
2017-12-28T11:20:05.888Z,99.99
2017-12-28T11:21:05.839Z,99.99
2017-12-28T11:22:05.719Z,99.99
2017-12-28T11:23:05.632Z,99.99
2017-12-28T11:24:05.552Z,99.99
2017-12-28T11:25:05.462Z,99.99
2017-12-28T11:26:05.376Z,99.99
2017-12-28T11:27:05.294Z,99.99
2017-12-28T11:28:05.206Z,99.99
2017-12-28T11:29:05.123Z,99.99
2017-12-28T11:30:05.046Z,99.99
2017-12-28T11:31:04.954Z,99.99
2017-12-28T11:32:04.867Z,99.99
2017-12-28T11:33:04.790Z,99.99
2017-12-28T11:34:04.698Z,99.99
2017-12-28T11:35:04.609Z,99.99
2017-12-28T11:36:04.525Z,99.99
2017-12-28T11:37:04.439Z,99.99
2017-12-28T11:38:04.353Z,99.99
2017-12-28T11:39:04.286Z,99.99
2017-12-28T11:40:04.184Z,99.99
2017-12-28T11:41:04.101Z,99.99
2017-12-28T11:42:04.012Z,99.99
2017-12-28T11:43:03.925Z,99.99
2017-12-28T11:44:03.842Z,99.99
2017-12-28T11:45:03.784Z,99.99
2017-12-28T11:46:03.673Z,99.99
2017-12-28T11:47:03.586Z,99.99
2017-12-28T11:48:03.500Z,99.99
2017-12-28T11:49:03.413Z,99.99
2017-12-28T11:50:03.328Z,99.99
2017-12-28T11:51:03.241Z,99.99
2017-12-28T11:52:03.159Z,99.99
2017-12-28T11:53:03.079Z,99.99
2017-12-28T11:54:02.984Z,99.99
2017-12-28T11:55:02.901Z,99.99
2017-12-28T11:56:02.815Z,99.99
2017-12-28T11:57:02.731Z,99.99
2017-12-28T11:58:02.645Z,99.99
2017-12-28T11:59:02.558Z,99.99
2017-12-28T12:00:02.473Z,99.99
2017-12-28T12:01:02.391Z,99.99
2017-12-28T12:02:02.304Z,99.99
2017-12-28T12:03:02.217Z,99.99
2017-12-28T12:04:02.132Z,99.99
2017-12-28T12:05:02.051Z,99.99
2017-12-28T12:06:01.961Z,99.99
2017-12-28T12:07:01.878Z,99.99
2017-12-28T12:08:01.789Z,99.52
2017-12-28T12:09:01.704Z,99.81
2017-12-28T12:10:01.621Z,98.96
2017-12-28T12:11:01.534Z,99.71
2017-12-28T12:12:01.447Z,99.24
2017-12-28T12:13:01.365Z,98.86
2017-12-28T12:14:01.276Z,98.58
2017-12-28T12:15:01.192Z,99.15
2017-12-28T12:16:01.107Z,99.24
2017-12-28T12:17:01.021Z,99.15
2017-12-28T12:18:00.937Z,99.43
2017-12-28T12:19:00.856Z,99.52
2017-12-28T12:20:00.764Z,99.24
2017-12-28T12:21:00.678Z,98.96
2017-12-28T12:22:00.592Z,99.15
2017-12-28T12:23:00.509Z,99.24
2017-12-28T12:24:00.423Z,99.33
2017-12-28T12:25:00.336Z,99.05
2017-12-28T12:26:00.252Z,99.52
2017-12-28T12:27:00.169Z,98.96
2017-12-28T12:28:00.080Z,99.99
2017-12-28T12:29:00.000Z,99.24
2017-12-28T12:29:59.910Z,99.24
2017-12-28T12:30:59.841Z,99.90
2017-12-28T12:31:59.742Z,98.96
2017-12-28T12:32:59.673Z,99.71
2017-12-28T12:33:59.579Z,99.62
2017-12-28T12:34:59.483Z,99.90
2017-12-28T12:35:59.397Z,99.90
2017-12-28T12:36:59.315Z,99.43
2017-12-28T12:37:59.228Z,99.81
2017-12-28T12:38:59.143Z,99.52
2017-12-28T12:39:59.061Z,99.81
2017-12-28T12:40:58.973Z,99.90
2017-12-28T12:41:58.885Z,99.99
2017-12-28T12:42:58.802Z,99.99
2017-12-28T12:43:58.717Z,99.99
2017-12-28T12:44:58.631Z,99.52
2017-12-28T12:45:58.547Z,99.62
2017-12-28T12:46:58.462Z,99.67
2017-12-28T12:47:58.376Z,99.58
2017-12-28T12:48:58.291Z,99.81
2017-12-28T12:49:58.208Z,99.99
2017-12-28T12:50:58.123Z,99.81
2017-12-28T12:51:58.037Z,99.71
2017-12-28T12:52:57.950Z,99.96
2017-12-28T12:53:57.866Z,99.99
2017-12-28T12:54:57.781Z,99.77